Lovell Field Chattanooga US
ICAO: KCHA
IATA: CHA
Category: Large
Scheduled Services: Yes

Elevation: 683 ft
TransAlt. 18000 ft.

Airport Communications:
CHATTANOOGA APP:119.2
CHATTANOOGA APP:122.5
ATIS:119.85
CLNC DEL:120.95
CTAF:118.3
CHATTANOOGA DEP:119.2
GND:121.7
ARNG OPS:41.5
CHATTANOOGA TWR:118.3
UNICOM:122.95

KCHA Zoom In..

If you have problems with the map follow the link
https://www.worldairports.se/pages/airport.php?
ICAO=KCHA

Runways:

(A) RW 02 length 7400 ft width 150 ft
ILS 108.30 / hdg 19

(B) RW 15 length 5575 ft width 150 ft
---- / hdg 147

(C) RW 20 length 7400 ft width 150 ft
ILS 109.50 / hdg 199

(D) RW 33 length 5575 ft width 150 ft
---- / hdg 327

Location; KCHA
Day. 18 / Time. 06.53 Zulu
* Altimeter: 30.36
* Temperature: 12° c. 53.6°f.
* Wind from: 340° Speed 05 kn.
Dewpoint: 07° c.
Visibility: 10 Statute Miles.
Clouds: Clear (automated report).

KCHA 180653Z AUTO 34005KT 10SM CLR 12/07 A3036 RMK AO2 SLP278 T01220067


Wind From 340°
Speed 05 kn.

 
 
jpsmedia.com for Web Design worldairports.se 2018   terms of use